sensor_id;sensor_type;location;lat;lon;timestamp;P1;durP1;ratioP1;P2;durP2;ratioP2
32196;SDS011;18697;42.770;23.400;2023-03-04T00:01:10;16.50;;;10.55;;
32196;SDS011;18697;42.770;23.400;2023-03-04T00:03:35;15.93;;;10.48;;
32196;SDS011;18697;42.770;23.400;2023-03-04T00:06:01;19.20;;;10.15;;
32196;SDS011;18697;42.770;23.400;2023-03-04T00:08:27;15.43;;;9.95;;
32196;SDS011;18697;42.770;23.400;2023-03-04T00:10:52;14.90;;;9.90;;
32196;SDS011;18697;42.770;23.400;2023-03-04T00:13:18;17.08;;;10.55;;
32196;SDS011;18697;42.770;23.400;2023-03-04T00:15:45;15.80;;;9.45;;
32196;SDS011;18697;42.770;23.400;2023-03-04T00:18:11;12.95;;;9.02;;
32196;SDS011;18697;42.770;23.400;2023-03-04T00:20:36;16.33;;;9.43;;
32196;SDS011;18697;42.770;23.400;2023-03-04T00:23:01;13.68;;;9.00;;
32196;SDS011;18697;42.770;23.400;2023-03-04T00:25:27;19.38;;;9.45;;
32196;SDS011;18697;42.770;23.400;2023-03-04T00:27:52;12.32;;;8.82;;
32196;SDS011;18697;42.770;23.400;2023-03-04T00:30:18;16.65;;;9.63;;
32196;SDS011;18697;42.770;23.400;2023-03-04T00:32:43;13.98;;;8.95;;
32196;SDS011;18697;42.770;23.400;2023-03-04T00:35:09;16.17;;;9.85;;
32196;SDS011;18697;42.770;23.400;2023-03-04T00:37:34;16.65;;;10.05;;
32196;SDS011;18697;42.770;23.400;2023-03-04T00:39:59;15.68;;;9.85;;
32196;SDS011;18697;42.770;23.400;2023-03-04T00:42:25;16.38;;;10.25;;
32196;SDS011;18697;42.770;23.400;2023-03-04T00:44:50;16.88;;;10.68;;
32196;SDS011;18697;42.770;23.400;2023-03-04T00:47:16;13.32;;;9.77;;
32196;SDS011;18697;42.770;23.400;2023-03-04T00:49:41;16.67;;;10.35;;
32196;SDS011;18697;42.770;23.400;2023-03-04T00:52:07;20.33;;;11.80;;
32196;SDS011;18697;42.770;23.400;2023-03-04T00:54:32;19.27;;;11.02;;
32196;SDS011;18697;42.770;23.400;2023-03-04T00:56:57;21.55;;;11.48;;
32196;SDS011;18697;42.770;23.400;2023-03-04T00:59:23;18.20;;;11.68;;
32196;SDS011;18697;42.770;23.400;2023-03-04T01:01:48;18.83;;;11.80;;
32196;SDS011;18697;42.770;23.400;2023-03-04T01:04:13;22.73;;;12.70;;
32196;SDS011;18697;42.770;23.400;2023-03-04T01:06:39;24.35;;;12.23;;
32196;SDS011;18697;42.770;23.400;2023-03-04T01:09:07;18.08;;;12.63;;
32196;SDS011;18697;42.770;23.400;2023-03-04T01:11:32;19.95;;;12.75;;
32196;SDS011;18697;42.770;23.400;2023-03-04T01:13:58;25.65;;;13.18;;
32196;SDS011;18697;42.770;23.400;2023-03-04T01:16:23;56.53;;;30.63;;
32196;SDS011;18697;42.770;23.400;2023-03-04T01:18:48;46.22;;;26.20;;
32196;SDS011;18697;42.770;23.400;2023-03-04T01:21:14;22.85;;;15.43;;
32196;SDS011;18697;42.770;23.400;2023-03-04T01:23:39;21.95;;;12.98;;
32196;SDS011;18697;42.770;23.400;2023-03-04T01:26:05;21.73;;;12.65;;
32196;SDS011;18697;42.770;23.400;2023-03-04T01:28:30;23.85;;;14.10;;
32196;SDS011;18697;42.770;23.400;2023-03-04T01:30:59;17.77;;;11.48;;
32196;SDS011;18697;42.770;23.400;2023-03-04T01:33:25;36.63;;;18.33;;
32196;SDS011;18697;42.770;23.400;2023-03-04T01:35:51;40.65;;;23.52;;
32196;SDS011;18697;42.770;23.400;2023-03-04T01:38:16;26.02;;;15.27;;
32196;SDS011;18697;42.770;23.400;2023-03-04T01:40:41;20.55;;;13.68;;
32196;SDS011;18697;42.770;23.400;2023-03-04T01:43:09;24.08;;;13.02;;
32196;SDS011;18697;42.770;23.400;2023-03-04T01:45:40;18.48;;;12.60;;
32196;SDS011;18697;42.770;23.400;2023-03-04T01:48:07;19.52;;;12.20;;
32196;SDS011;18697;42.770;23.400;2023-03-04T01:50:34;19.55;;;12.52;;
32196;SDS011;18697;42.770;23.400;2023-03-04T01:53:00;19.80;;;12.35;;
32196;SDS011;18697;42.770;23.400;2023-03-04T01:55:26;19.85;;;12.43;;
32196;SDS011;18697;42.770;23.400;2023-03-04T01:57:53;19.13;;;12.98;;
32196;SDS011;18697;42.770;23.400;2023-03-04T02:02:47;19.20;;;11.95;;
32196;SDS011;18697;42.770;23.400;2023-03-04T02:05:14;19.05;;;12.30;;
32196;SDS011;18697;42.770;23.400;2023-03-04T02:07:40;21.10;;;12.90;;
32196;SDS011;18697;42.770;23.400;2023-03-04T02:10:06;22.00;;;13.27;;
32196;SDS011;18697;42.770;23.400;2023-03-04T02:12:33;21.60;;;13.27;;
32196;SDS011;18697;42.770;23.400;2023-03-04T02:14:58;25.27;;;13.15;;
32196;SDS011;18697;42.770;23.400;2023-03-04T02:17:27;23.15;;;12.90;;
32196;SDS011;18697;42.770;23.400;2023-03-04T02:22:27;20.08;;;14.57;;
32196;SDS011;18697;42.770;23.400;2023-03-04T02:24:57;22.10;;;13.98;;
32196;SDS011;18697;42.770;23.400;2023-03-04T02:27:28;22.95;;;15.00;;
32196;SDS011;18697;42.770;23.400;2023-03-04T02:32:19;24.42;;;14.93;;
32196;SDS011;18697;42.770;23.400;2023-03-04T02:34:46;29.23;;;16.35;;
32196;SDS011;18697;42.770;23.400;2023-03-04T02:37:13;45.45;;;29.55;;
32196;SDS011;18697;42.770;23.400;2023-03-04T02:39:43;42.45;;;27.70;;
32196;SDS011;18697;42.770;23.400;2023-03-04T02:42:10;30.85;;;20.83;;
32196;SDS011;18697;42.770;23.400;2023-03-04T02:44:40;22.85;;;14.65;;
32196;SDS011;18697;42.770;23.400;2023-03-04T02:47:10;22.15;;;13.63;;
32196;SDS011;18697;42.770;23.400;2023-03-04T02:49:37;21.75;;;13.65;;
32196;SDS011;18697;42.770;23.400;2023-03-04T02:52:05;22.58;;;13.70;;
32196;SDS011;18697;42.770;23.400;2023-03-04T02:54:32;20.55;;;14.57;;
32196;SDS011;18697;42.770;23.400;2023-03-04T02:56:59;22.88;;;14.10;;
32196;SDS011;18697;42.770;23.400;2023-03-04T02:59:26;27.73;;;14.50;;
32196;SDS011;18697;42.770;23.400;2023-03-04T03:04:17;22.07;;;13.57;;
32196;SDS011;18697;42.770;23.400;2023-03-04T03:06:45;24.88;;;14.85;;
32196;SDS011;18697;42.770;23.400;2023-03-04T03:09:11;25.40;;;13.77;;
32196;SDS011;18697;42.770;23.400;2023-03-04T03:11:36;22.23;;;14.25;;
32196;SDS011;18697;42.770;23.400;2023-03-04T03:14:02;28.98;;;15.75;;
32196;SDS011;18697;42.770;23.400;2023-03-04T03:16:27;27.42;;;15.57;;
32196;SDS011;18697;42.770;23.400;2023-03-04T03:18:53;26.85;;;16.42;;
32196;SDS011;18697;42.770;23.400;2023-03-04T03:21:18;32.45;;;15.90;;
32196;SDS011;18697;42.770;23.400;2023-03-04T03:23:44;28.90;;;16.33;;
32196;SDS011;18697;42.770;23.400;2023-03-04T03:26:09;30.70;;;15.82;;
32196;SDS011;18697;42.770;23.400;2023-03-04T03:28:35;24.35;;;16.02;;
32196;SDS011;18697;42.770;23.400;2023-03-04T03:31:00;38.33;;;22.70;;
32196;SDS011;18697;42.770;23.400;2023-03-04T03:33:26;25.85;;;16.65;;
32196;SDS011;18697;42.770;23.400;2023-03-04T03:35:51;27.85;;;15.57;;
32196;SDS011;18697;42.770;23.400;2023-03-04T03:38:17;30.40;;;17.13;;
32196;SDS011;18697;42.770;23.400;2023-03-04T03:40:42;25.05;;;14.85;;
32196;SDS011;18697;42.770;23.400;2023-03-04T03:43:08;30.05;;;19.60;;
32196;SDS011;18697;42.770;23.400;2023-03-04T03:45:33;30.63;;;19.85;;
32196;SDS011;18697;42.770;23.400;2023-03-04T03:47:58;38.47;;;20.35;;
32196;SDS011;18697;42.770;23.400;2023-03-04T03:50:24;30.88;;;17.83;;
32196;SDS011;18697;42.770;23.400;2023-03-04T03:52:49;34.15;;;19.50;;
32196;SDS011;18697;42.770;23.400;2023-03-04T03:55:15;37.38;;;21.42;;
32196;SDS011;18697;42.770;23.400;2023-03-04T03:57:40;30.08;;;19.83;;
32196;SDS011;18697;42.770;23.400;2023-03-04T04:00:06;39.53;;;23.02;;
32196;SDS011;18697;42.770;23.400;2023-03-04T04:02:33;41.15;;;23.58;;
32196;SDS011;18697;42.770;23.400;2023-03-04T04:04:58;45.75;;;23.98;;
32196;SDS011;18697;42.770;23.400;2023-03-04T04:07:24;41.75;;;24.15;;
32196;SDS011;18697;42.770;23.400;2023-03-04T04:09:49;35.30;;;21.75;;
32196;SDS011;18697;42.770;23.400;2023-03-04T04:12:15;33.90;;;20.80;;
32196;SDS011;18697;42.770;23.400;2023-03-04T04:14:41;38.08;;;21.80;;
32196;SDS011;18697;42.770;23.400;2023-03-04T04:17:07;40.20;;;23.73;;
32196;SDS011;18697;42.770;23.400;2023-03-04T04:19:33;37.95;;;20.50;;
32196;SDS011;18697;42.770;23.400;2023-03-04T04:21:58;34.05;;;20.05;;
32196;SDS011;18697;42.770;23.400;2023-03-04T04:24:24;32.72;;;20.83;;
32196;SDS011;18697;42.770;23.400;2023-03-04T04:26:49;36.20;;;21.50;;
32196;SDS011;18697;42.770;23.400;2023-03-04T04:29:15;40.53;;;23.42;;
32196;SDS011;18697;42.770;23.400;2023-03-04T04:31:40;140.23;;;67.15;;
32196;SDS011;18697;42.770;23.400;2023-03-04T04:34:06;47.67;;;24.17;;
32196;SDS011;18697;42.770;23.400;2023-03-04T04:36:31;42.42;;;21.48;;
32196;SDS011;18697;42.770;23.400;2023-03-04T04:38:56;36.45;;;21.42;;
32196;SDS011;18697;42.770;23.400;2023-03-04T04:41:26;39.42;;;20.58;;
32196;SDS011;18697;42.770;23.400;2023-03-04T04:43:54;39.22;;;21.83;;
32196;SDS011;18697;42.770;23.400;2023-03-04T04:46:21;36.15;;;22.73;;
32196;SDS011;18697;42.770;23.400;2023-03-04T04:48:46;34.28;;;19.85;;
32196;SDS011;18697;42.770;23.400;2023-03-04T04:51:13;35.80;;;21.35;;
32196;SDS011;18697;42.770;23.400;2023-03-04T04:53:38;35.58;;;22.23;;
32196;SDS011;18697;42.770;23.400;2023-03-04T04:56:08;32.63;;;19.95;;
32196;SDS011;18697;42.770;23.400;2023-03-04T04:58:37;29.23;;;18.35;;
32196;SDS011;18697;42.770;23.400;2023-03-04T05:01:03;29.50;;;17.75;;
32196;SDS011;18697;42.770;23.400;2023-03-04T05:03:29;34.17;;;20.27;;
32196;SDS011;18697;42.770;23.400;2023-03-04T05:05:55;31.30;;;19.88;;
32196;SDS011;18697;42.770;23.400;2023-03-04T05:08:20;33.25;;;19.58;;
32196;SDS011;18697;42.770;23.400;2023-03-04T05:10:46;31.45;;;18.38;;
32196;SDS011;18697;42.770;23.400;2023-03-04T05:13:12;34.08;;;20.75;;
32196;SDS011;18697;42.770;23.400;2023-03-04T05:15:37;32.03;;;19.48;;
32196;SDS011;18697;42.770;23.400;2023-03-04T05:18:03;35.63;;;19.40;;
32196;SDS011;18697;42.770;23.400;2023-03-04T05:20:28;38.65;;;21.70;;
32196;SDS011;18697;42.770;23.400;2023-03-04T05:22:54;85.65;;;35.17;;
32196;SDS011;18697;42.770;23.400;2023-03-04T05:25:19;42.90;;;25.15;;
32196;SDS011;18697;42.770;23.400;2023-03-04T05:27:44;70.25;;;32.35;;
32196;SDS011;18697;42.770;23.400;2023-03-04T05:30:10;60.97;;;31.35;;
32196;SDS011;18697;42.770;23.400;2023-03-04T05:32:36;49.97;;;27.00;;
32196;SDS011;18697;42.770;23.400;2023-03-04T05:35:01;43.33;;;26.60;;
32196;SDS011;18697;42.770;23.400;2023-03-04T05:37:27;39.40;;;23.33;;
32196;SDS011;18697;42.770;23.400;2023-03-04T05:39:52;49.50;;;28.08;;
32196;SDS011;18697;42.770;23.400;2023-03-04T05:42:18;57.38;;;30.80;;
32196;SDS011;18697;42.770;23.400;2023-03-04T05:44:43;76.88;;;36.15;;
32196;SDS011;18697;42.770;23.400;2023-03-04T05:47:08;68.43;;;35.78;;
32196;SDS011;18697;42.770;23.400;2023-03-04T05:49:34;57.20;;;31.13;;
32196;SDS011;18697;42.770;23.400;2023-03-04T05:51:59;45.95;;;29.17;;
32196;SDS011;18697;42.770;23.400;2023-03-04T05:54:24;65.43;;;35.17;;
32196;SDS011;18697;42.770;23.400;2023-03-04T05:56:50;89.68;;;43.55;;
32196;SDS011;18697;42.770;23.400;2023-03-04T05:59:15;81.28;;;43.75;;
32196;SDS011;18697;42.770;23.400;2023-03-04T06:01:44;61.33;;;32.78;;
32196;SDS011;18697;42.770;23.400;2023-03-04T06:04:10;46.17;;;26.73;;
32196;SDS011;18697;42.770;23.400;2023-03-04T06:06:36;38.90;;;23.33;;
32196;SDS011;18697;42.770;23.400;2023-03-04T06:09:01;38.97;;;21.45;;
32196;SDS011;18697;42.770;23.400;2023-03-04T06:11:27;30.95;;;18.75;;
32196;SDS011;18697;42.770;23.400;2023-03-04T06:13:52;32.53;;;19.90;;
32196;SDS011;18697;42.770;23.400;2023-03-04T06:16:17;42.20;;;22.65;;
32196;SDS011;18697;42.770;23.400;2023-03-04T06:18:43;30.15;;;18.83;;
32196;SDS011;18697;42.770;23.400;2023-03-04T06:21:08;38.95;;;21.42;;
32196;SDS011;18697;42.770;23.400;2023-03-04T06:23:33;36.65;;;19.90;;
32196;SDS011;18697;42.770;23.400;2023-03-04T06:25:59;42.50;;;27.63;;
32196;SDS011;18697;42.770;23.400;2023-03-04T06:28:25;39.58;;;22.17;;
32196;SDS011;18697;42.770;23.400;2023-03-04T06:30:52;41.70;;;23.65;;
32196;SDS011;18697;42.770;23.400;2023-03-04T06:33:18;41.08;;;21.90;;
32196;SDS011;18697;42.770;23.400;2023-03-04T06:35:44;38.30;;;23.67;;
32196;SDS011;18697;42.770;23.400;2023-03-04T06:38:09;50.67;;;33.95;;
32196;SDS011;18697;42.770;23.400;2023-03-04T06:40:35;44.35;;;30.40;;
32196;SDS011;18697;42.770;23.400;2023-03-04T06:43:00;53.42;;;36.15;;
32196;SDS011;18697;42.770;23.400;2023-03-04T06:45:26;34.45;;;20.90;;
32196;SDS011;18697;42.770;23.400;2023-03-04T06:47:51;34.28;;;20.85;;
32196;SDS011;18697;42.770;23.400;2023-03-04T06:50:16;43.97;;;26.73;;
32196;SDS011;18697;42.770;23.400;2023-03-04T06:52:42;47.92;;;27.02;;
32196;SDS011;18697;42.770;23.400;2023-03-04T06:55:07;33.47;;;19.67;;
32196;SDS011;18697;42.770;23.400;2023-03-04T06:57:33;29.13;;;19.08;;
32196;SDS011;18697;42.770;23.400;2023-03-04T06:59:59;30.65;;;20.08;;
32196;SDS011;18697;42.770;23.400;2023-03-04T07:02:24;32.28;;;20.45;;
32196;SDS011;18697;42.770;23.400;2023-03-04T07:04:49;27.27;;;17.55;;
32196;SDS011;18697;42.770;23.400;2023-03-04T07:07:15;23.70;;;16.10;;
32196;SDS011;18697;42.770;23.400;2023-03-04T07:09:40;28.77;;;18.00;;
32196;SDS011;18697;42.770;23.400;2023-03-04T07:12:06;28.13;;;19.20;;
32196;SDS011;18697;42.770;23.400;2023-03-04T07:14:31;28.58;;;17.70;;
32196;SDS011;18697;42.770;23.400;2023-03-04T07:16:57;28.35;;;18.10;;
32196;SDS011;18697;42.770;23.400;2023-03-04T07:19:22;27.80;;;17.58;;
32196;SDS011;18697;42.770;23.400;2023-03-04T07:21:48;27.90;;;17.88;;
32196;SDS011;18697;42.770;23.400;2023-03-04T07:24:13;28.60;;;17.63;;
32196;SDS011;18697;42.770;23.400;2023-03-04T07:26:39;29.10;;;19.42;;
32196;SDS011;18697;42.770;23.400;2023-03-04T07:29:04;26.75;;;18.05;;
32196;SDS011;18697;42.770;23.400;2023-03-04T07:31:31;28.27;;;17.80;;
32196;SDS011;18697;42.770;23.400;2023-03-04T07:33:58;35.97;;;20.35;;
32196;SDS011;18697;42.770;23.400;2023-03-04T07:36:25;30.17;;;17.48;;
32196;SDS011;18697;42.770;23.400;2023-03-04T07:38:52;25.58;;;17.17;;
32196;SDS011;18697;42.770;23.400;2023-03-04T07:41:19;27.13;;;17.25;;
32196;SDS011;18697;42.770;23.400;2023-03-04T07:43:45;29.92;;;17.95;;
32196;SDS011;18697;42.770;23.400;2023-03-04T07:46:11;30.10;;;17.60;;
32196;SDS011;18697;42.770;23.400;2023-03-04T07:48:37;26.58;;;16.63;;
32196;SDS011;18697;42.770;23.400;2023-03-04T07:53:30;25.05;;;16.83;;
32196;SDS011;18697;42.770;23.400;2023-03-04T07:55:56;27.25;;;16.27;;
32196;SDS011;18697;42.770;23.400;2023-03-04T07:58:21;28.80;;;17.27;;
32196;SDS011;18697;42.770;23.400;2023-03-04T08:00:47;26.08;;;16.20;;
32196;SDS011;18697;42.770;23.400;2023-03-04T08:03:12;27.95;;;17.23;;
32196;SDS011;18697;42.770;23.400;2023-03-04T08:05:38;29.70;;;15.85;;
32196;SDS011;18697;42.770;23.400;2023-03-04T08:08:03;25.55;;;15.93;;
32196;SDS011;18697;42.770;23.400;2023-03-04T08:10:29;27.50;;;16.58;;
32196;SDS011;18697;42.770;23.400;2023-03-04T08:12:54;28.10;;;16.90;;
32196;SDS011;18697;42.770;23.400;2023-03-04T08:15:20;27.13;;;17.17;;
32196;SDS011;18697;42.770;23.400;2023-03-04T08:17:45;28.20;;;17.45;;
32196;SDS011;18697;42.770;23.400;2023-03-04T08:20:10;24.60;;;16.45;;
32196;SDS011;18697;42.770;23.400;2023-03-04T08:22:36;28.42;;;16.23;;
32196;SDS011;18697;42.770;23.400;2023-03-04T08:25:01;24.85;;;15.25;;
32196;SDS011;18697;42.770;23.400;2023-03-04T08:27:27;20.45;;;13.65;;
32196;SDS011;18697;42.770;23.400;2023-03-04T08:29:53;17.33;;;10.98;;
32196;SDS011;18697;42.770;23.400;2023-03-04T08:32:18;14.13;;;8.88;;
32196;SDS011;18697;42.770;23.400;2023-03-04T08:34:43;13.50;;;8.05;;
32196;SDS011;18697;42.770;23.400;2023-03-04T08:37:09;16.02;;;8.60;;
32196;SDS011;18697;42.770;23.400;2023-03-04T08:39:34;15.02;;;9.02;;
32196;SDS011;18697;42.770;23.400;2023-03-04T08:42:01;18.52;;;9.00;;
32196;SDS011;18697;42.770;23.400;2023-03-04T08:44:27;15.73;;;8.82;;
32196;SDS011;18697;42.770;23.400;2023-03-04T08:46:53;18.73;;;10.40;;
32196;SDS011;18697;42.770;23.400;2023-03-04T08:49:18;15.13;;;8.98;;
32196;SDS011;18697;42.770;23.400;2023-03-04T08:51:43;13.88;;;8.35;;
32196;SDS011;18697;42.770;23.400;2023-03-04T08:56:34;12.40;;;8.63;;
32196;SDS011;18697;42.770;23.400;2023-03-04T08:58:59;15.10;;;9.27;;
32196;SDS011;18697;42.770;23.400;2023-03-04T09:01:25;11.60;;;6.57;;
32196;SDS011;18697;42.770;23.400;2023-03-04T09:03:50;9.88;;;5.90;;
32196;SDS011;18697;42.770;23.400;2023-03-04T09:06:16;9.23;;;4.93;;
32196;SDS011;18697;42.770;23.400;2023-03-04T09:08:42;12.80;;;5.68;;
32196;SDS011;18697;42.770;23.400;2023-03-04T09:11:09;8.85;;;5.97;;
32196;SDS011;18697;42.770;23.400;2023-03-04T09:13:34;13.32;;;6.82;;
32196;SDS011;18697;42.770;23.400;2023-03-04T09:16:00;10.82;;;7.40;;
32196;SDS011;18697;42.770;23.400;2023-03-04T09:18:26;17.15;;;8.38;;
32196;SDS011;18697;42.770;23.400;2023-03-04T09:20:52;12.57;;;8.07;;
32196;SDS011;18697;42.770;23.400;2023-03-04T09:23:18;12.40;;;7.47;;
32196;SDS011;18697;42.770;23.400;2023-03-04T09:25:45;11.18;;;7.18;;
32196;SDS011;18697;42.770;23.400;2023-03-04T09:28:14;14.70;;;8.00;;
32196;SDS011;18697;42.770;23.400;2023-03-04T09:30:41;17.15;;;9.55;;
32196;SDS011;18697;42.770;23.400;2023-03-04T09:33:07;12.77;;;8.82;;
32196;SDS011;18697;42.770;23.400;2023-03-04T09:35:32;16.00;;;9.82;;
32196;SDS011;18697;42.770;23.400;2023-03-04T09:37:58;15.70;;;9.38;;
32196;SDS011;18697;42.770;23.400;2023-03-04T09:40:28;13.20;;;9.35;;
32196;SDS011;18697;42.770;23.400;2023-03-04T09:43:01;13.85;;;9.35;;
32196;SDS011;18697;42.770;23.400;2023-03-04T09:46:02;16.30;;;8.85;;
32196;SDS011;18697;42.770;23.400;2023-03-04T09:48:23;17.42;;;9.02;;
32196;SDS011;18697;42.770;23.400;2023-03-04T09:56:21;15.40;;;8.32;;
32196;SDS011;18697;42.770;23.400;2023-03-04T09:58:59;12.35;;;8.70;;
32196;SDS011;18697;42.770;23.400;2023-03-04T10:01:39;14.48;;;9.18;;
32196;SDS011;18697;42.770;23.400;2023-03-04T10:06:56;22.88;;;9.85;;
32196;SDS011;18697;42.770;23.400;2023-03-04T10:09:24;261.63;;;85.75;;
32196;SDS011;18697;42.770;23.400;2023-03-04T10:12:03;228.35;;;84.60;;
32196;SDS011;18697;42.770;23.400;2023-03-04T10:14:36;59.38;;;27.65;;
32196;SDS011;18697;42.770;23.400;2023-03-04T10:17:23;187.48;;;70.03;;
32196;SDS011;18697;42.770;23.400;2023-03-04T10:25:18;119.40;;;44.47;;
32196;SDS011;18697;42.770;23.400;2023-03-04T10:27:50;120.50;;;42.63;;
32196;SDS011;18697;42.770;23.400;2023-03-04T10:30:22;55.38;;;24.35;;
32196;SDS011;18697;42.770;23.400;2023-03-04T10:33:18;22.33;;;12.02;;
32196;SDS011;18697;42.770;23.400;2023-03-04T10:35:54;19.50;;;10.98;;
32196;SDS011;18697;42.770;23.400;2023-03-04T10:38:34;18.02;;;11.15;;
32196;SDS011;18697;42.770;23.400;2023-03-04T10:41:04;17.60;;;11.38;;
32196;SDS011;18697;42.770;23.400;2023-03-04T10:43:40;17.75;;;12.05;;
32196;SDS011;18697;42.770;23.400;2023-03-04T10:46:09;17.35;;;11.35;;
32196;SDS011;18697;42.770;23.400;2023-03-04T10:48:36;21.45;;;11.75;;
32196;SDS011;18697;42.770;23.400;2023-03-04T10:51:11;23.60;;;12.48;;
32196;SDS011;18697;42.770;23.400;2023-03-04T10:53:49;18.27;;;11.65;;
32196;SDS011;18697;42.770;23.400;2023-03-04T11:04:23;27.10;;;14.60;;
32196;SDS011;18697;42.770;23.400;2023-03-04T11:06:50;23.33;;;14.60;;
32196;SDS011;18697;42.770;23.400;2023-03-04T11:09:20;20.67;;;12.18;;
32196;SDS011;18697;42.770;23.400;2023-03-04T11:11:51;18.98;;;11.32;;
32196;SDS011;18697;42.770;23.400;2023-03-04T11:16:58;18.45;;;11.90;;
32196;SDS011;18697;42.770;23.400;2023-03-04T11:19:47;22.98;;;12.45;;
32196;SDS011;18697;42.770;23.400;2023-03-04T11:22:19;20.73;;;12.63;;
32196;SDS011;18697;42.770;23.400;2023-03-04T11:24:53;19.52;;;12.52;;
32196;SDS011;18697;42.770;23.400;2023-03-04T11:27:29;20.55;;;12.15;;
32196;SDS011;18697;42.770;23.400;2023-03-04T11:30:03;29.92;;;19.15;;
32196;SDS011;18697;42.770;23.400;2023-03-04T11:33:11;37.13;;;25.33;;
32196;SDS011;18697;42.770;23.400;2023-03-04T11:35:46;23.35;;;14.15;;
32196;SDS011;18697;42.770;23.400;2023-03-04T11:38:30;23.33;;;13.55;;
32196;SDS011;18697;42.770;23.400;2023-03-04T11:41:02;22.52;;;12.88;;
32196;SDS011;18697;42.770;23.400;2023-03-04T11:43:37;22.98;;;12.45;;
32196;SDS011;18697;42.770;23.400;2023-03-04T11:56:44;20.75;;;13.30;;
32196;SDS011;18697;42.770;23.400;2023-03-04T12:04:19;20.40;;;14.00;;
32196;SDS011;18697;42.770;23.400;2023-03-04T12:15:25;29.52;;;15.57;;
32196;SDS011;18697;42.770;23.400;2023-03-04T12:20:46;27.13;;;14.45;;
32196;SDS011;18697;42.770;23.400;2023-03-04T12:26:24;26.58;;;15.48;;
32196;SDS011;18697;42.770;23.400;2023-03-04T12:31:42;28.15;;;16.80;;
32196;SDS011;18697;42.770;23.400;2023-03-04T12:53:32;25.75;;;14.98;;
32196;SDS011;18697;42.770;23.400;2023-03-04T12:56:22;24.90;;;15.77;;
32196;SDS011;18697;42.770;23.400;2023-03-04T12:58:52;25.23;;;15.18;;
32196;SDS011;18697;42.770;23.400;2023-03-04T13:01:23;22.50;;;14.13;;
32196;SDS011;18697;42.770;23.400;2023-03-04T13:06:45;25.48;;;14.68;;
32196;SDS011;18697;42.770;23.400;2023-03-04T13:09:23;23.67;;;14.00;;
32196;SDS011;18697;42.770;23.400;2023-03-04T13:14:40;25.77;;;15.48;;
32196;SDS011;18697;42.770;23.400;2023-03-04T13:20:40;28.65;;;15.45;;
32196;SDS011;18697;42.770;23.400;2023-03-04T13:28:05;32.35;;;18.80;;
32196;SDS011;18697;42.770;23.400;2023-03-04T13:30:41;42.30;;;23.60;;
32196;SDS011;18697;42.770;23.400;2023-03-04T13:36:02;31.30;;;17.73;;
32196;SDS011;18697;42.770;23.400;2023-03-04T13:38:57;29.88;;;18.52;;
32196;SDS011;18697;42.770;23.400;2023-03-04T13:41:28;24.45;;;15.60;;
32196;SDS011;18697;42.770;23.400;2023-03-04T13:43:56;40.15;;;21.38;;
32196;SDS011;18697;42.770;23.400;2023-03-04T13:56:46;26.15;;;15.90;;
32196;SDS011;18697;42.770;23.400;2023-03-04T13:59:31;29.75;;;16.83;;
32196;SDS011;18697;42.770;23.400;2023-03-04T14:02:12;31.63;;;17.05;;
32196;SDS011;18697;42.770;23.400;2023-03-04T14:04:55;46.05;;;27.85;;
32196;SDS011;18697;42.770;23.400;2023-03-04T14:12:53;37.38;;;19.52;;
32196;SDS011;18697;42.770;23.400;2023-03-04T14:17:45;32.67;;;18.23;;
32196;SDS011;18697;42.770;23.400;2023-03-04T14:20:23;27.55;;;17.65;;
32196;SDS011;18697;42.770;23.400;2023-03-04T14:22:51;29.77;;;18.23;;
32196;SDS011;18697;42.770;23.400;2023-03-04T14:27:43;26.50;;;16.95;;
32196;SDS011;18697;42.770;23.400;2023-03-04T14:32:54;44.35;;;23.40;;
32196;SDS011;18697;42.770;23.400;2023-03-04T14:35:31;37.22;;;22.48;;
32196;SDS011;18697;42.770;23.400;2023-03-04T14:40:31;44.65;;;27.23;;
32196;SDS011;18697;42.770;23.400;2023-03-04T14:43:20;56.60;;;35.08;;
32196;SDS011;18697;42.770;23.400;2023-03-04T14:45:48;46.78;;;25.85;;
32196;SDS011;18697;42.770;23.400;2023-03-04T14:48:20;51.75;;;29.83;;
32196;SDS011;18697;42.770;23.400;2023-03-04T14:50:49;40.03;;;21.80;;
32196;SDS011;18697;42.770;23.400;2023-03-04T14:53:17;42.35;;;26.08;;
32196;SDS011;18697;42.770;23.400;2023-03-04T14:58:35;42.85;;;26.42;;
32196;SDS011;18697;42.770;23.400;2023-03-04T15:01:21;37.28;;;23.35;;
32196;SDS011;18697;42.770;23.400;2023-03-04T15:03:54;39.25;;;22.45;;
32196;SDS011;18697;42.770;23.400;2023-03-04T15:06:24;43.33;;;26.92;;
32196;SDS011;18697;42.770;23.400;2023-03-04T15:08:58;61.83;;;36.88;;
32196;SDS011;18697;42.770;23.400;2023-03-04T15:11:27;58.13;;;28.17;;
32196;SDS011;18697;42.770;23.400;2023-03-04T15:13:56;59.75;;;31.92;;
32196;SDS011;18697;42.770;23.400;2023-03-04T15:16:24;71.90;;;34.65;;
32196;SDS011;18697;42.770;23.400;2023-03-04T15:18:59;62.45;;;32.80;;
32196;SDS011;18697;42.770;23.400;2023-03-04T15:21:30;41.22;;;23.73;;
32196;SDS011;18697;42.770;23.400;2023-03-04T15:24:09;56.33;;;31.38;;
32196;SDS011;18697;42.770;23.400;2023-03-04T15:26:39;47.80;;;26.85;;
32196;SDS011;18697;42.770;23.400;2023-03-04T15:29:13;49.15;;;27.50;;
32196;SDS011;18697;42.770;23.400;2023-03-04T15:31:41;45.30;;;23.25;;
32196;SDS011;18697;42.770;23.400;2023-03-04T15:34:15;47.85;;;24.83;;
32196;SDS011;18697;42.770;23.400;2023-03-04T15:36:43;58.70;;;33.08;;
32196;SDS011;18697;42.770;23.400;2023-03-04T15:39:11;65.88;;;34.08;;
32196;SDS011;18697;42.770;23.400;2023-03-04T15:41:38;73.90;;;37.92;;
32196;SDS011;18697;42.770;23.400;2023-03-04T15:44:04;87.20;;;42.90;;
32196;SDS011;18697;42.770;23.400;2023-03-04T15:48:55;258.55;;;78.75;;
32196;SDS011;18697;42.770;23.400;2023-03-04T15:51:20;111.38;;;42.10;;
32196;SDS011;18697;42.770;23.400;2023-03-04T15:53:50;89.63;;;34.25;;
32196;SDS011;18697;42.770;23.400;2023-03-04T15:56:21;175.27;;;69.40;;
32196;SDS011;18697;42.770;23.400;2023-03-04T15:58:53;241.38;;;77.53;;
32196;SDS011;18697;42.770;23.400;2023-03-04T16:01:20;217.63;;;75.45;;
32196;SDS011;18697;42.770;23.400;2023-03-04T16:03:46;246.43;;;98.90;;
32196;SDS011;18697;42.770;23.400;2023-03-04T16:06:13;287.17;;;114.75;;
32196;SDS011;18697;42.770;23.400;2023-03-04T16:08:42;227.38;;;98.38;;
32196;SDS011;18697;42.770;23.400;2023-03-04T16:11:15;167.02;;;77.60;;
32196;SDS011;18697;42.770;23.400;2023-03-04T16:13:45;149.60;;;70.68;;
32196;SDS011;18697;42.770;23.400;2023-03-04T16:16:11;110.85;;;55.22;;
32196;SDS011;18697;42.770;23.400;2023-03-04T16:18:37;99.68;;;47.90;;
32196;SDS011;18697;42.770;23.400;2023-03-04T16:21:03;66.57;;;36.53;;
32196;SDS011;18697;42.770;23.400;2023-03-04T16:23:30;47.38;;;29.83;;
32196;SDS011;18697;42.770;23.400;2023-03-04T16:25:58;41.80;;;24.40;;
32196;SDS011;18697;42.770;23.400;2023-03-04T16:28:23;45.28;;;25.58;;
32196;SDS011;18697;42.770;23.400;2023-03-04T16:30:48;46.80;;;25.83;;
32196;SDS011;18697;42.770;23.400;2023-03-04T16:33:14;47.08;;;25.90;;
32196;SDS011;18697;42.770;23.400;2023-03-04T16:35:40;82.35;;;44.00;;